createdAt,value
2018-06-03T00:00:49.991Z,36.47
2018-06-03T00:03:18.248Z,37.83
2018-06-03T00:05:46.517Z,42.23
2018-06-03T00:08:14.731Z,40.40
2018-06-03T00:10:42.955Z,43.53
2018-06-03T00:13:11.206Z,40.53
2018-06-03T00:15:39.435Z,39.50
2018-06-03T00:18:07.694Z,40.80
2018-06-03T00:20:41.548Z,43.53
2018-06-03T00:23:09.811Z,42.10
2018-06-03T00:25:38.054Z,42.73
2018-06-03T00:28:06.280Z,39.77
2018-06-03T00:30:34.495Z,44.27
2018-06-03T00:33:02.721Z,43.13
2018-06-03T00:35:31.003Z,42.57
2018-06-03T00:37:59.255Z,43.40
2018-06-03T00:40:27.572Z,41.07
2018-06-03T00:42:55.756Z,40.37
2018-06-03T00:45:23.978Z,40.90
2018-06-03T00:47:52.287Z,42.70
2018-06-03T00:50:20.506Z,40.47
2018-06-03T00:52:48.704Z,39.13
2018-06-03T00:55:16.905Z,37.77
2018-06-03T00:57:45.147Z,38.43
2018-06-03T01:00:13.374Z,40.40
2018-06-03T01:02:41.599Z,44.80
2018-06-03T01:05:09.840Z,43.53
2018-06-03T01:07:38.047Z,42.93
2018-06-03T01:10:06.255Z,47.27
2018-06-03T01:12:34.476Z,43.87
2018-06-03T01:15:02.726Z,41.10
2018-06-03T01:17:30.983Z,45.50
2018-06-03T01:19:59.205Z,43.10
2018-06-03T01:22:27.418Z,43.93
2018-06-03T01:24:55.640Z,38.10
2018-06-03T01:27:23.933Z,41.87
2018-06-03T01:29:52.183Z,44.07
2018-06-03T01:32:20.427Z,40.77
2018-06-03T01:34:48.639Z,39.90
2018-06-03T01:37:16.862Z,45.90
2018-06-03T01:39:45.085Z,48.70
2018-06-03T01:42:13.366Z,44.80
2018-06-03T01:44:41.574Z,45.53
2018-06-03T01:47:09.784Z,46.13
2018-06-03T01:49:38.037Z,43.03
2018-06-03T01:52:06.269Z,50.23
2018-06-03T01:54:34.533Z,46.13
2018-06-03T01:57:02.745Z,44.77
2018-06-03T01:59:30.932Z,48.27
2018-06-03T02:01:59.138Z,40.53
2018-06-03T02:04:27.361Z,43.30
2018-06-03T02:06:55.606Z,48.67
2018-06-03T02:09:23.852Z,45.13
2018-06-03T02:11:58.513Z,46.47
2018-06-03T02:14:26.742Z,50.30
2018-06-03T02:16:54.971Z,49.70
2018-06-03T02:19:23.182Z,48.17
2018-06-03T02:21:51.390Z,44.90
2018-06-03T02:24:19.650Z,43.00
2018-06-03T02:26:47.867Z,47.17
2018-06-03T02:29:16.117Z,48.67
2018-06-03T02:31:44.374Z,47.60
2018-06-03T02:34:12.581Z,44.20
2018-06-03T02:36:40.879Z,52.50
2018-06-03T02:39:09.178Z,47.13
2018-06-03T02:41:37.437Z,45.80
2018-06-03T02:44:05.698Z,45.57
2018-06-03T02:46:33.931Z,53.30
2018-06-03T02:49:02.224Z,60.50
2018-06-03T02:51:30.459Z,57.60
2018-06-03T02:53:58.677Z,56.83
2018-06-03T02:56:26.994Z,57.97
2018-06-03T02:58:55.248Z,50.57
2018-06-03T03:01:23.505Z,45.87
2018-06-03T03:03:51.752Z,44.10
2018-06-03T03:06:19.984Z,47.20
2018-06-03T03:08:48.264Z,40.67
2018-06-03T03:11:16.476Z,38.77
2018-06-03T03:13:44.691Z,49.27
2018-06-03T03:16:12.935Z,42.77
2018-06-03T03:18:41.149Z,47.67
2018-06-03T03:21:09.408Z,46.20
2018-06-03T03:23:37.664Z,49.33
2018-06-03T03:26:05.891Z,48.00
2018-06-03T03:28:34.110Z,50.33
2018-06-03T03:31:02.366Z,46.67
2018-06-03T03:33:30.725Z,43.47
2018-06-03T03:35:58.926Z,48.30
2018-06-03T03:38:27.153Z,48.73
2018-06-03T03:41:01.848Z,49.83
2018-06-03T03:43:30.058Z,54.20
2018-06-03T03:45:58.269Z,52.80
2018-06-03T03:48:26.490Z,51.17
2018-06-03T03:50:54.805Z,50.70
2018-06-03T03:53:23.021Z,53.57
2018-06-03T03:55:51.230Z,53.90
2018-06-03T03:58:19.807Z,55.50
2018-06-03T04:00:48.026Z,49.87
2018-06-03T04:03:16.265Z,58.73
2018-06-03T04:05:44.501Z,57.97
2018-06-03T04:08:12.727Z,61.17
2018-06-03T04:10:40.975Z,56.73
2018-06-03T04:13:09.245Z,62.27
2018-06-03T04:15:37.509Z,60.40
2018-06-03T04:18:05.761Z,60.37
2018-06-03T04:20:33.971Z,64.63
2018-06-03T04:23:02.172Z,61.17
2018-06-03T04:25:30.440Z,57.40
2018-06-03T04:27:58.715Z,65.97
2018-06-03T04:30:26.948Z,62.83
2018-06-03T04:32:55.217Z,58.67
2018-06-03T04:35:23.434Z,61.27
2018-06-03T04:37:51.680Z,63.70
2018-06-03T04:40:19.913Z,64.20
2018-06-03T04:42:48.150Z,61.53
2018-06-03T04:45:16.391Z,57.67
2018-06-03T04:47:44.634Z,58.73
2018-06-03T04:50:12.899Z,55.73
2018-06-03T04:52:41.114Z,60.93
2018-06-03T04:55:09.385Z,56.90
2018-06-03T04:57:37.616Z,59.87
2018-06-03T05:00:05.879Z,65.90
2018-06-03T05:02:34.115Z,62.13
2018-06-03T05:05:02.334Z,61.73
2018-06-03T05:07:30.545Z,60.13
2018-06-03T05:09:58.838Z,60.03
2018-06-03T05:12:27.118Z,60.93
2018-06-03T05:14:55.343Z,56.13
2018-06-03T05:17:23.567Z,64.03
2018-06-03T05:19:51.907Z,58.70
2018-06-03T05:22:20.126Z,57.77
2018-06-03T05:24:48.341Z,58.33
2018-06-03T05:27:16.597Z,57.27
2018-06-03T05:29:44.818Z,57.50
2018-06-03T05:32:13.092Z,59.73
2018-06-03T05:34:41.334Z,59.00
2018-06-03T05:37:09.582Z,55.67
2018-06-03T05:39:37.845Z,58.17
2018-06-03T05:42:06.053Z,57.47
2018-06-03T05:44:34.333Z,57.30
2018-06-03T05:47:02.546Z,56.50
2018-06-03T05:49:30.745Z,56.20
2018-06-03T05:51:59.048Z,58.70
2018-06-03T05:54:27.287Z,55.80
2018-06-03T05:56:55.499Z,55.60
2018-06-03T05:59:23.681Z,54.00
2018-06-03T06:01:51.897Z,50.17
2018-06-03T06:04:20.158Z,51.23
2018-06-03T06:06:48.378Z,50.60
2018-06-03T06:09:16.653Z,49.53
2018-06-03T06:11:44.863Z,54.03
2018-06-03T06:14:13.103Z,49.73
2018-06-03T06:16:41.350Z,52.00
2018-06-03T06:19:09.567Z,49.27
2018-06-03T06:21:37.783Z,48.17
2018-06-03T06:24:05.989Z,51.73
2018-06-03T06:26:34.207Z,45.70
2018-06-03T06:29:02.450Z,45.70
2018-06-03T06:31:30.667Z,51.07
2018-06-03T06:33:58.865Z,52.33
2018-06-03T06:36:27.297Z,51.00
2018-06-03T06:38:55.449Z,45.33
2018-06-03T06:41:23.711Z,45.43
2018-06-03T06:43:51.927Z,46.93
2018-06-03T06:46:20.147Z,43.37
2018-06-03T06:48:48.342Z,44.87
2018-06-03T06:51:16.573Z,42.30
2018-06-03T06:53:44.802Z,45.77
2018-06-03T06:56:13.072Z,44.47
2018-06-03T06:58:41.295Z,46.40
2018-06-03T07:01:09.479Z,48.20
2018-06-03T07:03:37.687Z,46.37
2018-06-03T07:06:06.012Z,45.83
2018-06-03T07:08:34.223Z,47.37
2018-06-03T07:11:02.419Z,47.07
2018-06-03T07:13:30.643Z,43.93
2018-06-03T07:15:58.870Z,42.93
2018-06-03T07:18:27.127Z,45.27
2018-06-03T07:20:55.341Z,41.10
2018-06-03T07:23:23.629Z,43.50
2018-06-03T07:25:51.748Z,44.03
2018-06-03T07:28:19.931Z,46.97
2018-06-03T07:30:48.122Z,41.90
2018-06-03T07:33:16.301Z,41.70
2018-06-03T07:35:44.593Z,40.53
2018-06-03T07:38:12.824Z,40.27
2018-06-03T07:40:41.158Z,38.63
2018-06-03T07:43:09.359Z,38.07
2018-06-03T07:45:37.557Z,38.50
2018-06-03T07:48:05.733Z,36.73
2018-06-03T07:50:34.575Z,39.83
2018-06-03T07:53:02.852Z,39.17
2018-06-03T07:55:31.031Z,35.83
2018-06-03T07:57:59.227Z,36.70
2018-06-03T08:00:27.475Z,36.83
2018-06-03T08:02:55.791Z,36.50
2018-06-03T08:05:24.025Z,36.23
2018-06-03T08:07:52.241Z,36.07
2018-06-03T08:10:20.513Z,34.10
2018-06-03T08:12:48.701Z,34.87
2018-06-03T08:15:16.882Z,33.90
2018-06-03T08:17:45.156Z,32.00
2018-06-03T08:20:13.340Z,33.17
2018-06-03T08:22:41.586Z,32.23
2018-06-03T08:25:09.799Z,32.87
2018-06-03T08:27:38.135Z,32.83
2018-06-03T08:30:06.463Z,31.33
2018-06-03T08:32:34.626Z,33.83
2018-06-03T08:35:03.366Z,35.50
2018-06-03T08:37:31.820Z,35.30
2018-06-03T08:40:00.069Z,35.77
2018-06-03T08:42:28.246Z,34.30
2018-06-03T08:44:56.481Z,34.97
2018-06-03T08:47:24.731Z,33.03
2018-06-03T08:49:52.968Z,34.83
2018-06-03T08:52:21.421Z,33.17
2018-06-03T08:54:49.635Z,37.10
2018-06-03T08:57:17.846Z,34.77
2018-06-03T08:59:46.114Z,32.90
2018-06-03T09:02:14.457Z,34.00
2018-06-03T09:04:42.704Z,33.30
2018-06-03T09:07:10.886Z,31.47
2018-06-03T09:09:39.084Z,31.37
2018-06-03T09:12:07.385Z,31.10
2018-06-03T09:14:35.623Z,31.83
2018-06-03T09:17:04.534Z,34.40
2018-06-03T09:19:32.735Z,31.70
2018-06-03T09:22:01.011Z,30.60
2018-06-03T09:24:29.206Z,31.27
2018-06-03T09:26:57.385Z,30.03
2018-06-03T09:29:25.715Z,31.43
2018-06-03T09:31:54.102Z,30.67
2018-06-03T09:34:22.323Z,34.20
2018-06-03T09:36:50.510Z,30.63
2018-06-03T09:39:18.738Z,29.57
2018-06-03T09:41:46.978Z,31.97
2018-06-03T09:44:15.224Z,31.63
2018-06-03T09:46:43.413Z,31.53
2018-06-03T09:49:11.658Z,30.53
2018-06-03T09:51:39.895Z,30.57
2018-06-03T09:54:08.082Z,31.73
2018-06-03T09:56:36.486Z,29.80
2018-06-03T09:59:04.760Z,30.30
2018-06-03T10:01:32.961Z,28.73
2018-06-03T10:04:01.246Z,29.63
2018-06-03T10:06:29.557Z,28.20
2018-06-03T10:08:57.803Z,29.93
2018-06-03T10:11:25.985Z,28.50
2018-06-03T10:13:54.210Z,28.63
2018-06-03T10:16:22.463Z,30.13
2018-06-03T10:18:50.754Z,30.03
2018-06-03T10:21:19.402Z,30.00
2018-06-03T10:23:47.850Z,29.50
2018-06-03T10:26:16.054Z,31.43
2018-06-03T10:28:44.262Z,28.57
2018-06-03T10:31:12.491Z,27.90
2018-06-03T10:33:40.690Z,27.93
2018-06-03T10:36:08.890Z,27.40
2018-06-03T10:38:37.100Z,27.43
2018-06-03T10:41:05.573Z,27.00
2018-06-03T10:43:33.796Z,26.00
2018-06-03T10:46:04.909Z,26.93
2018-06-03T10:48:33.097Z,27.10
2018-06-03T10:51:01.300Z,26.00
2018-06-03T10:53:29.486Z,27.30
2018-06-03T10:55:57.826Z,25.20
2018-06-03T10:58:26.061Z,26.63
2018-06-03T11:00:54.273Z,25.50
2018-06-03T11:03:22.480Z,25.30
2018-06-03T11:05:50.674Z,25.00
2018-06-03T11:08:18.907Z,27.03
2018-06-03T11:10:47.088Z,26.07
2018-06-03T11:13:15.295Z,24.33
2018-06-03T11:15:43.553Z,25.13
2018-06-03T11:18:12.230Z,25.00
2018-06-03T11:20:40.435Z,24.63
2018-06-03T11:23:08.884Z,25.13
2018-06-03T11:25:37.153Z,24.67
2018-06-03T11:28:05.432Z,25.57
2018-06-03T11:30:33.615Z,24.83
2018-06-03T11:33:01.839Z,25.47
2018-06-03T11:35:30.466Z,24.27
2018-06-03T11:37:59.297Z,25.37
2018-06-03T11:40:27.489Z,25.60
2018-06-03T11:42:55.681Z,26.63
2018-06-03T11:45:23.884Z,28.37
2018-06-03T11:47:52.116Z,29.23
2018-06-03T11:50:20.658Z,29.70
2018-06-03T11:52:48.843Z,28.73
2018-06-03T11:55:17.034Z,28.43
2018-06-03T11:57:54.935Z,27.37
2018-06-03T12:00:23.170Z,28.13
2018-06-03T12:02:51.371Z,28.67
2018-06-03T12:05:19.556Z,29.27
2018-06-03T12:07:47.755Z,28.60
2018-06-03T12:10:15.950Z,26.93
2018-06-03T12:12:44.144Z,31.17
2018-06-03T12:15:12.350Z,28.00
2018-06-03T12:17:40.543Z,27.90
2018-06-03T12:20:08.799Z,25.40
2018-06-03T12:22:37.005Z,24.10
2018-06-03T12:25:05.358Z,23.93
2018-06-03T12:27:33.597Z,24.43
2018-06-03T12:30:01.902Z,26.37
2018-06-03T12:32:30.175Z,23.00
2018-06-03T12:34:58.370Z,21.47
2018-06-03T12:37:26.582Z,23.90
2018-06-03T12:39:54.868Z,24.37
2018-06-03T12:42:23.093Z,22.97
2018-06-03T12:44:51.307Z,22.57
2018-06-03T12:47:19.503Z,24.33
2018-06-03T12:49:47.725Z,24.70
2018-06-03T12:52:15.922Z,26.17
2018-06-03T12:54:44.141Z,23.60
2018-06-03T12:57:12.316Z,21.20
2018-06-03T12:59:40.493Z,21.90
2018-06-03T13:02:08.744Z,21.43
2018-06-03T13:04:37.037Z,21.77
2018-06-03T13:07:05.222Z,22.97
2018-06-03T13:09:33.425Z,22.40
2018-06-03T13:12:01.974Z,20.27
2018-06-03T13:14:30.192Z,20.17
2018-06-03T13:16:59.009Z,19.80
2018-06-03T13:19:27.201Z,19.10
2018-06-03T13:21:55.381Z,19.37
2018-06-03T13:24:23.582Z,20.02
2018-06-03T13:26:51.853Z,22.27
2018-06-03T13:29:20.060Z,19.77
2018-06-03T13:31:48.254Z,21.30
2018-06-03T13:34:16.421Z,21.60
2018-06-03T13:36:44.622Z,23.97
2018-06-03T13:39:12.798Z,22.63
2018-06-03T13:41:40.991Z,21.27
2018-06-03T13:44:09.193Z,22.10
2018-06-03T13:46:37.403Z,20.77
2018-06-03T13:49:05.622Z,21.33
2018-06-03T13:51:33.845Z,18.97
2018-06-03T13:54:02.065Z,20.17
2018-06-03T13:56:30.242Z,21.67
2018-06-03T13:58:58.427Z,20.80
2018-06-03T14:01:26.651Z,20.20
2018-06-03T14:03:54.866Z,19.90
2018-06-03T14:06:23.110Z,21.30
2018-06-03T14:08:51.293Z,19.83
2018-06-03T14:11:19.581Z,20.80
2018-06-03T14:13:47.774Z,20.53
2018-06-03T14:16:15.950Z,20.80
2018-06-03T14:18:44.769Z,22.17
2018-06-03T14:21:12.948Z,23.17
2018-06-03T14:23:41.124Z,22.73
2018-06-03T14:26:09.330Z,21.57
2018-06-03T14:28:37.517Z,23.20
2018-06-03T14:31:05.689Z,22.57
2018-06-03T14:33:33.870Z,23.10
2018-06-03T14:36:02.051Z,22.40
2018-06-03T14:38:30.256Z,22.43
2018-06-03T14:40:58.459Z,22.63
2018-06-03T14:43:26.676Z,23.23
2018-06-03T14:45:54.878Z,24.07
2018-06-03T14:48:23.082Z,23.37
2018-06-03T14:50:51.307Z,22.97
2018-06-03T14:53:19.508Z,24.40
2018-06-03T14:55:47.726Z,23.40
2018-06-03T14:58:15.904Z,22.50
2018-06-03T15:00:44.045Z,23.07
2018-06-03T15:03:12.266Z,22.00
2018-06-03T15:05:40.434Z,22.47
2018-06-03T15:08:08.630Z,19.73
2018-06-03T15:10:36.837Z,20.20
2018-06-03T15:13:05.072Z,16.83
2018-06-03T15:15:33.293Z,14.63
2018-06-03T15:18:01.531Z,11.20
2018-06-03T15:20:29.854Z,11.53
2018-06-03T15:22:58.088Z,11.17
2018-06-03T15:25:26.912Z,11.97
2018-06-03T15:27:56.192Z,11.97
2018-06-03T15:30:24.481Z,13.07
2018-06-03T15:32:52.714Z,12.53
2018-06-03T15:35:20.987Z,11.70
2018-06-03T15:37:49.241Z,13.00
2018-06-03T15:40:17.511Z,13.00
2018-06-03T15:42:45.771Z,13.17
2018-06-03T15:45:14.033Z,12.97
2018-06-03T15:47:42.276Z,12.90
2018-06-03T15:50:10.533Z,13.90
2018-06-03T15:52:38.872Z,15.27
2018-06-03T15:55:07.169Z,14.17
2018-06-03T15:57:35.405Z,15.63
2018-06-03T16:00:03.810Z,16.27
2018-06-03T16:02:32.047Z,16.13
2018-06-03T16:05:00.671Z,16.70
2018-06-03T16:07:29.035Z,16.80
2018-06-03T16:09:57.291Z,18.30
2018-06-03T16:12:25.563Z,18.60
2018-06-03T16:14:53.798Z,20.03
2018-06-03T16:17:22.076Z,21.00
2018-06-03T16:19:50.299Z,24.37
2018-06-03T16:22:18.594Z,22.97
2018-06-03T16:24:46.834Z,22.43
2018-06-03T16:27:15.116Z,23.77
2018-06-03T16:29:43.359Z,21.97
2018-06-03T16:32:11.597Z,23.73
2018-06-03T16:34:39.882Z,23.70
2018-06-03T16:37:08.156Z,24.33
2018-06-03T16:39:36.405Z,22.73
2018-06-03T16:42:04.786Z,23.80
2018-06-03T16:44:33.034Z,22.57
2018-06-03T16:47:01.290Z,22.67
2018-06-03T16:49:29.631Z,21.23
2018-06-03T16:51:57.874Z,21.70
2018-06-03T16:54:26.112Z,22.40
2018-06-03T16:56:54.339Z,21.60
2018-06-03T16:59:22.566Z,21.17
2018-06-03T17:01:50.741Z,22.03
2018-06-03T17:04:18.913Z,21.23
2018-06-03T17:06:47.155Z,22.03
2018-06-03T17:09:15.383Z,21.47
2018-06-03T17:11:43.692Z,21.30
2018-06-03T17:14:11.885Z,22.23
2018-06-03T17:16:40.129Z,22.67
2018-06-03T17:19:08.344Z,22.57
2018-06-03T17:21:36.563Z,21.60
2018-06-03T17:24:04.793Z,21.70
2018-06-03T17:26:33.059Z,21.73
2018-06-03T17:29:01.242Z,20.63
2018-06-03T17:31:29.532Z,20.30
2018-06-03T17:33:57.746Z,20.23
2018-06-03T17:36:25.961Z,20.83
2018-06-03T17:38:54.143Z,21.33
2018-06-03T17:41:22.370Z,20.33
2018-06-03T17:43:50.565Z,19.90
2018-06-03T17:46:18.752Z,20.97
2018-06-03T17:48:46.990Z,19.47
2018-06-03T17:51:15.170Z,22.70
2018-06-03T17:53:43.445Z,22.47
2018-06-03T17:56:11.674Z,22.87
2018-06-03T17:58:39.991Z,23.00
2018-06-03T18:01:08.209Z,23.30
2018-06-03T18:03:36.381Z,24.00
2018-06-03T18:06:04.561Z,24.67
2018-06-03T18:08:32.749Z,22.53
2018-06-03T18:11:01.867Z,23.13
2018-06-03T18:13:30.084Z,22.67
2018-06-03T18:15:58.317Z,22.30
2018-06-03T18:18:26.529Z,21.47
2018-06-03T18:20:54.722Z,23.87
2018-06-03T18:23:22.913Z,22.23
2018-06-03T18:25:51.640Z,22.40
2018-06-03T18:28:19.977Z,20.63
2018-06-03T18:30:48.223Z,22.90
2018-06-03T18:33:16.453Z,23.67
2018-06-03T18:35:44.673Z,23.30
2018-06-03T18:38:12.894Z,22.37
2018-06-03T18:40:41.074Z,22.47
2018-06-03T18:43:09.327Z,21.83
2018-06-03T18:45:37.510Z,32.03
2018-06-03T18:48:05.709Z,46.30
2018-06-03T18:50:34.021Z,45.97
2018-06-03T18:53:02.269Z,27.83
2018-06-03T18:55:30.436Z,27.57
2018-06-03T18:57:58.690Z,26.73
2018-06-03T19:00:26.882Z,23.73
2018-06-03T19:02:55.099Z,24.43
2018-06-03T19:05:23.283Z,24.73
2018-06-03T19:07:51.501Z,23.53
2018-06-03T19:10:19.767Z,24.40
2018-06-03T19:12:47.954Z,25.97
2018-06-03T19:15:16.177Z,26.00
2018-06-03T19:17:44.485Z,28.13
2018-06-03T19:20:12.714Z,29.30
2018-06-03T19:22:40.919Z,54.23
2018-06-03T19:25:09.094Z,47.87
2018-06-03T19:27:37.334Z,40.17
2018-06-03T19:30:05.777Z,36.97
2018-06-03T19:32:33.953Z,34.23
2018-06-03T19:35:02.140Z,33.13
2018-06-03T19:37:30.373Z,33.77
2018-06-03T19:39:58.606Z,34.37
2018-06-03T19:42:26.850Z,29.67
2018-06-03T19:44:55.192Z,27.77
2018-06-03T19:47:23.379Z,29.27
2018-06-03T19:49:51.581Z,28.87
2018-06-03T19:52:19.801Z,26.67
2018-06-03T19:54:48.112Z,27.63
2018-06-03T19:57:16.318Z,45.60
2018-06-03T19:59:44.510Z,44.40
2018-06-03T20:02:12.829Z,38.13
2018-06-03T20:04:41.046Z,37.33
2018-06-03T20:07:09.270Z,35.37
2018-06-03T20:09:37.458Z,30.37
2018-06-03T20:12:05.667Z,29.80
2018-06-03T20:14:33.877Z,31.53
2018-06-03T20:17:02.062Z,29.67
2018-06-03T20:19:30.385Z,30.10
2018-06-03T20:21:58.571Z,28.67
2018-06-03T20:24:26.794Z,28.67
2018-06-03T20:26:54.977Z,28.73
2018-06-03T20:29:23.173Z,27.20
2018-06-03T20:31:51.394Z,30.30
2018-06-03T20:34:19.577Z,28.13
2018-06-03T20:36:47.778Z,32.60
2018-06-03T20:39:15.990Z,30.70
2018-06-03T20:41:44.153Z,30.03
2018-06-03T20:44:12.480Z,28.57
2018-06-03T20:46:40.707Z,26.67
2018-06-03T20:49:08.891Z,28.50
2018-06-03T20:51:37.118Z,26.40
2018-06-03T20:54:05.294Z,27.87
2018-06-03T20:56:33.597Z,28.23
2018-06-03T20:59:01.847Z,28.67
2018-06-03T21:01:30.031Z,28.37
2018-06-03T21:03:58.659Z,28.60
2018-06-03T21:06:26.854Z,31.17
2018-06-03T21:08:55.090Z,31.07
2018-06-03T21:11:23.366Z,30.23
2018-06-03T21:13:51.589Z,28.60
2018-06-03T21:16:19.760Z,29.03
2018-06-03T21:18:47.961Z,27.63
2018-06-03T21:21:16.190Z,28.40
2018-06-03T21:23:44.379Z,27.03
2018-06-03T21:26:12.580Z,27.60
2018-06-03T21:28:40.784Z,27.83
2018-06-03T21:31:08.978Z,27.83
2018-06-03T21:33:37.196Z,26.33
2018-06-03T21:36:05.670Z,28.43
2018-06-03T21:38:33.897Z,28.00
2018-06-03T21:41:02.090Z,27.33
2018-06-03T21:43:30.269Z,28.93
2018-06-03T21:45:58.654Z,31.23
2018-06-03T21:48:26.824Z,34.00
2018-06-03T21:50:55.001Z,33.23
2018-06-03T21:53:23.185Z,37.10
2018-06-03T21:55:51.380Z,34.70
2018-06-03T22:01:06.879Z,35.60
2018-06-03T22:03:35.234Z,33.83
2018-06-03T22:06:03.513Z,34.40
2018-06-03T22:08:31.796Z,37.70
2018-06-03T22:11:00.090Z,36.17
2018-06-03T22:13:28.392Z,35.97
2018-06-03T22:15:56.700Z,36.97
2018-06-03T22:18:24.974Z,42.53
2018-06-03T22:20:53.248Z,40.97
2018-06-03T22:23:21.508Z,40.57
2018-06-03T22:25:49.760Z,41.00
2018-06-03T22:28:18.085Z,42.90
2018-06-03T22:30:46.323Z,40.27
2018-06-03T22:33:14.565Z,42.43
2018-06-03T22:35:42.783Z,43.23
2018-06-03T22:38:11.044Z,41.53
2018-06-03T22:40:39.332Z,42.73
2018-06-03T22:43:07.592Z,44.10
2018-06-03T22:45:35.829Z,47.30
2018-06-03T22:48:04.097Z,48.93
2018-06-03T22:50:32.339Z,53.03
2018-06-03T22:53:00.629Z,48.27
2018-06-03T22:55:28.850Z,49.13
2018-06-03T22:57:57.070Z,46.23
2018-06-03T23:00:29.555Z,49.37
2018-06-03T23:03:03.142Z,51.23
2018-06-03T23:05:31.456Z,49.27
2018-06-03T23:07:59.736Z,53.50
2018-06-03T23:10:27.974Z,53.97
2018-06-03T23:12:56.219Z,55.27
2018-06-03T23:15:24.519Z,49.93
2018-06-03T23:17:52.808Z,46.23
2018-06-03T23:20:21.037Z,47.63
2018-06-03T23:22:49.260Z,46.20
2018-06-03T23:25:17.479Z,52.87
2018-06-03T23:27:45.695Z,48.23
2018-06-03T23:30:13.952Z,49.53
2018-06-03T23:32:42.187Z,48.43
2018-06-03T23:35:10.424Z,49.33
2018-06-03T23:37:38.768Z,49.97
2018-06-03T23:40:07.024Z,52.30
2018-06-03T23:42:35.275Z,53.10
2018-06-03T23:45:03.573Z,45.50
2018-06-03T23:47:31.905Z,51.87
2018-06-03T23:50:00.172Z,49.57
2018-06-03T23:52:28.438Z,46.47
2018-06-03T23:54:56.750Z,52.23
2018-06-03T23:57:24.997Z,45.73
2018-06-03T23:59:53.225Z,48.10
